Time;durP1;ratioP1;P1;durP2;ratioP2;P2;SDS_P1;SDS_P2;PMS_P1;PMS_P2;Temp;Humidity;BMP_temperature;BMP_pressure;BME280_temperature;BME280_humidity;BME280_pressure;Samples;Min_cycle;Max_cycle;Signal;HPM_P1;HPM_P2
2020/12/22 00:02:13;;;;;;;5.07;3.30;;;;;;;;;;5091237;28;20528;-71
2020/12/22 00:04:39;;;;;;;9.97;4.67;;;;;;;;;;5093853;28;20420;-71
2020/12/22 00:07:05;;;;;;;5.80;4.13;;;;;;;;;;5093273;28;20424;-71
2020/12/22 00:09:31;;;;;;;6.20;3.50;;;;;;;;;;5094244;28;20440;-71
2020/12/22 00:11:57;;;;;;;6.23;4.40;;;;;;;;;;5099156;28;20950;-71
2020/12/22 00:14:23;;;;;;;4.60;3.80;;;;;;;;;;5114301;28;20427;-71
2020/12/22 00:16:49;;;;;;;4.90;3.93;;;;;;;;;;5106973;28;20430;-71
2020/12/22 00:19:15;;;;;;;5.07;3.67;;;;;;;;;;5093868;28;20451;-71
2020/12/22 00:21:41;;;;;;;6.93;3.97;;;;;;;;;;5095560;28;20427;-71
2020/12/22 00:24:07;;;;;;;4.47;3.73;;;;;;;;;;5112648;28;20426;-71
2020/12/22 00:26:33;;;;;;;5.20;4.70;;;;;;;;;;5092190;28;20754;-71
2020/12/22 00:28:59;;;;;;;11.13;4.17;;;;;;;;;;5093420;28;20426;-71
2020/12/22 00:31:25;;;;;;;9.87;4.03;;;;;;;;;;5093140;28;20431;-71
2020/12/22 00:33:51;;;;;;;4.97;3.47;;;;;;;;;;5113660;28;20782;-71
2020/12/22 00:36:17;;;;;;;5.57;3.70;;;;;;;;;;5112319;28;20398;-71
2020/12/22 00:38:43;;;;;;;5.80;4.30;;;;;;;;;;5094187;28;20463;-71
2020/12/22 00:41:14;;;;;;;5.60;4.00;;;;;;;;;;5093352;28;20406;-71
2020/12/22 00:43:40;;;;;;;10.77;4.80;;;;;;;;;;5094230;28;20849;-71
2020/12/22 00:46:06;;;;;;;4.00;3.10;;;;;;;;;;5113800;28;20395;-71
2020/12/22 00:48:32;;;;;;;5.43;3.90;;;;;;;;;;5111813;28;20434;-71
2020/12/22 00:50:58;;;;;;;7.33;3.70;;;;;;;;;;5116987;28;20810;-70
2020/12/22 00:53:24;;;;;;;5.83;3.60;;;;;;;;;;5098883;28;20469;-70
2020/12/22 00:55:50;;;;;;;6.27;3.60;;;;;;;;;;5097267;28;20757;-70
2020/12/22 00:58:16;;;;;;;5.00;2.93;;;;;;;;;;5091510;28;20506;-71
2020/12/22 01:00:42;;;;;;;4.67;3.67;;;;;;;;;;5096678;28;20511;-70
2020/12/22 01:03:08;;;;;;;6.10;3.63;;;;;;;;;;5109620;28;20437;-70
2020/12/22 01:05:34;;;;;;;5.23;3.60;;;;;;;;;;5118035;28;20468;-71
2020/12/22 01:08:00;;;;;;;4.43;3.63;;;;;;;;;;5115917;28;20415;-70
2020/12/22 01:10:26;;;;;;;5.10;3.87;;;;;;;;;;5117326;28;20399;-71
2020/12/22 01:12:53;;;;;;;4.37;3.30;;;;;;;;;;5115225;28;20495;-70
2020/12/22 01:15:20;;;;;;;5.23;3.50;;;;;;;;;;5117352;28;20900;-70
2020/12/22 01:17:46;;;;;;;4.00;3.07;;;;;;;;;;5115476;28;20443;-70
2020/12/22 01:20:12;;;;;;;7.13;3.13;;;;;;;;;;5117463;28;20474;-70
2020/12/22 01:22:38;;;;;;;4.30;3.10;;;;;;;;;;5115446;28;20423;-70
2020/12/22 01:25:04;;;;;;;4.80;3.40;;;;;;;;;;5117268;28;20445;-70
2020/12/22 01:27:30;;;;;;;3.93;3.03;;;;;;;;;;5115493;28;20423;-70
2020/12/22 01:29:56;;;;;;;3.50;2.90;;;;;;;;;;5117367;28;20407;-69
2020/12/22 01:32:22;;;;;;;4.23;2.53;;;;;;;;;;5107831;28;20424;-70
2020/12/22 01:34:48;;;;;;;2.43;2.23;;;;;;;;;;5096485;28;20485;-71
2020/12/22 01:37:14;;;;;;;3.70;2.03;;;;;;;;;;5101370;28;20540;-69
2020/12/22 01:39:40;;;;;;;3.40;2.30;;;;;;;;;;5113127;28;20543;-71
2020/12/22 01:42:10;;;;;;;2.90;1.93;;;;;;;;;;5073115;28;20428;-71
2020/12/22 01:44:36;;;;;;;4.33;1.90;;;;;;;;;;5075945;28;20470;-70
2020/12/22 01:47:02;;;;;;;2.73;2.10;;;;;;;;;;5076168;28;20768;-71
2020/12/22 01:49:28;;;;;;;4.20;2.03;;;;;;;;;;5077508;28;20432;-70
2020/12/22 01:51:58;;;;;;;3.47;2.00;;;;;;;;;;5096126;28;20399;-70
2020/12/22 01:54:25;;;;;;;2.57;1.60;;;;;;;;;;5094983;28;20593;-70
2020/12/22 01:56:51;;;;;;;6.33;1.70;;;;;;;;;;5096123;28;20412;-70
2020/12/22 01:59:17;;;;;;;2.73;1.50;;;;;;;;;;5061056;28;20539;-70
2020/12/22 02:01:43;;;;;;;2.07;1.70;;;;;;;;;;5076662;28;20412;-71
2020/12/22 02:04:10;;;;;;;2.30;1.80;;;;;;;;;;5092181;28;20443;-70
2020/12/22 02:06:36;;;;;;;3.17;2.13;;;;;;;;;;5095718;28;20404;-70
2020/12/22 02:09:04;;;;;;;2.63;1.70;;;;;;;;;;5095484;28;20431;-70
2020/12/22 02:11:31;;;;;;;3.13;2.60;;;;;;;;;;5095983;28;20407;-70
2020/12/22 02:13:58;;;;;;;4.80;3.13;;;;;;;;;;5103521;28;20449;-70
2020/12/22 02:16:24;;;;;;;4.30;3.00;;;;;;;;;;5116150;28;20490;-70
2020/12/22 02:18:51;;;;;;;4.73;2.70;;;;;;;;;;5114004;28;20451;-71
2020/12/22 02:21:17;;;;;;;4.30;2.90;;;;;;;;;;5115987;28;20410;-70
2020/12/22 02:23:44;;;;;;;4.97;3.57;;;;;;;;;;5114599;28;20847;-70
2020/12/22 02:26:10;;;;;;;5.17;4.07;;;;;;;;;;5116170;28;20407;-70
2020/12/22 02:28:36;;;;;;;5.83;3.80;;;;;;;;;;5112589;28;20991;-70
2020/12/22 02:31:03;;;;;;;6.20;3.60;;;;;;;;;;5115803;28;20439;-70
2020/12/22 02:33:29;;;;;;;4.67;3.87;;;;;;;;;;5114286;28;20422;-70
2020/12/22 02:35:56;;;;;;;3.83;3.47;;;;;;;;;;5115900;28;20540;-70
2020/12/22 02:38:22;;;;;;;4.30;3.47;;;;;;;;;;5113686;28;20456;-70
2020/12/22 02:40:48;;;;;;;4.90;3.30;;;;;;;;;;5116007;28;20427;-70
2020/12/22 02:43:15;;;;;;;4.70;3.10;;;;;;;;;;5114294;28;20391;-70
2020/12/22 02:45:42;;;;;;;4.67;3.13;;;;;;;;;;5115768;28;20476;-70
2020/12/22 02:48:08;;;;;;;5.40;3.03;;;;;;;;;;5113341;28;20396;-70
2020/12/22 02:50:35;;;;;;;4.23;3.40;;;;;;;;;;5113911;28;20911;-71
2020/12/22 02:53:01;;;;;;;3.67;2.93;;;;;;;;;;5115714;28;20756;-70
2020/12/22 02:55:27;;;;;;;5.37;4.40;;;;;;;;;;5106923;28;20466;-70
2020/12/22 02:57:53;;;;;;;4.40;3.50;;;;;;;;;;5094815;28;20885;-71
2020/12/22 03:00:20;;;;;;;4.10;3.47;;;;;;;;;;5109898;28;20970;-71
2020/12/22 03:02:46;;;;;;;4.70;3.20;;;;;;;;;;5103880;28;20428;-71
2020/12/22 03:05:12;;;;;;;4.10;3.10;;;;;;;;;;5088804;28;20469;-70
2020/12/22 03:07:38;;;;;;;3.30;2.80;;;;;;;;;;5094982;28;20411;-69
2020/12/22 03:10:07;;;;;;;4.77;3.40;;;;;;;;;;5104403;28;20433;-70
2020/12/22 03:12:33;;;;;;;6.63;3.80;;;;;;;;;;5114053;28;20426;-70
2020/12/22 03:14:59;;;;;;;5.03;3.10;;;;;;;;;;5094712;28;20451;-70
2020/12/22 03:17:25;;;;;;;2.60;2.27;;;;;;;;;;5115449;28;20395;-71
2020/12/22 03:19:51;;;;;;;7.20;2.93;;;;;;;;;;5112892;28;20454;-70
2020/12/22 03:22:17;;;;;;;3.50;3.20;;;;;;;;;;5114853;28;20487;-72
2020/12/22 03:24:43;;;;;;;3.70;3.13;;;;;;;;;;5105561;28;20943;-70
2020/12/22 03:27:09;;;;;;;3.83;3.00;;;;;;;;;;5094684;28;20396;-72
2020/12/22 03:29:35;;;;;;;4.27;2.33;;;;;;;;;;5098966;28;20777;-69
2020/12/22 03:32:01;;;;;;;3.23;2.53;;;;;;;;;;5114839;28;20407;-70
2020/12/22 03:34:27;;;;;;;3.07;2.00;;;;;;;;;;5108808;28;20984;-72
2020/12/22 03:36:53;;;;;;;3.37;1.50;;;;;;;;;;5094045;28;20408;-70
2020/12/22 03:39:19;;;;;;;2.37;1.20;;;;;;;;;;5107548;28;20472;-70
2020/12/22 03:41:46;;;;;;;3.20;2.03;;;;;;;;;;5093781;28;20408;-70
2020/12/22 03:44:12;;;;;;;3.07;1.50;;;;;;;;;;5094810;28;20420;-72
2020/12/22 03:46:38;;;;;;;1.87;1.20;;;;;;;;;;5114654;28;20395;-70
2020/12/22 03:49:04;;;;;;;5.57;1.77;;;;;;;;;;5113239;28;20407;-70
2020/12/22 03:51:31;;;;;;;1.90;1.40;;;;;;;;;;5114285;28;20441;-71
2020/12/22 03:53:57;;;;;;;1.80;1.57;;;;;;;;;;5113598;28;20423;-70
2020/12/22 03:56:23;;;;;;;1.70;1.10;;;;;;;;;;5113205;28;20427;-71
2020/12/22 03:58:49;;;;;;;2.00;1.23;;;;;;;;;;5114354;28;20446;-72
2020/12/22 04:01:15;;;;;;;2.00;1.30;;;;;;;;;;5093467;28;20473;-70
2020/12/22 04:03:41;;;;;;;3.30;1.20;;;;;;;;;;5092820;28;20447;-70
2020/12/22 04:06:07;;;;;;;2.07;1.40;;;;;;;;;;5077948;28;20428;-70
2020/12/22 04:08:34;;;;;;;1.27;0.80;;;;;;;;;;5092658;28;20412;-70
2020/12/22 04:11:00;;;;;;;2.17;1.03;;;;;;;;;;5091494;28;20519;-70
2020/12/22 04:13:26;;;;;;;1.30;1.00;;;;;;;;;;5093526;28;20455;-70
2020/12/22 04:15:53;;;;;;;1.70;1.20;;;;;;;;;;5093501;28;20759;-70
2020/12/22 04:18:19;;;;;;;1.67;1.30;;;;;;;;;;5092738;28;20412;-70
2020/12/22 04:20:45;;;;;;;1.77;0.97;;;;;;;;;;5093650;28;20426;-70
2020/12/22 04:23:11;;;;;;;2.17;1.47;;;;;;;;;;5092664;28;20455;-70
2020/12/22 04:25:37;;;;;;;1.40;1.00;;;;;;;;;;5093269;28;20423;-70
2020/12/22 04:28:03;;;;;;;2.67;1.33;;;;;;;;;;5092518;28;20420;-70
2020/12/22 04:30:29;;;;;;;3.57;1.20;;;;;;;;;;5093568;28;20431;-70
2020/12/22 04:32:55;;;;;;;2.47;1.70;;;;;;;;;;5108308;28;20547;-70
2020/12/22 04:35:21;;;;;;;1.30;0.90;;;;;;;;;;5113488;28;20911;-70
2020/12/22 04:37:47;;;;;;;5.53;1.53;;;;;;;;;;5099659;28;20427;-70
2020/12/22 04:40:13;;;;;;;1.83;1.37;;;;;;;;;;5091495;28;20521;-70
2020/12/22 04:42:39;;;;;;;1.70;1.03;;;;;;;;;;5100079;28;20419;-70
2020/12/22 04:45:05;;;;;;;1.40;1.03;;;;;;;;;;5113373;28;20456;-70
2020/12/22 04:47:31;;;;;;;2.00;1.30;;;;;;;;;;5104465;28;20416;-70
2020/12/22 04:50:00;;;;;;;1.70;1.37;;;;;;;;;;5093113;28;20396;-70
2020/12/22 04:52:26;;;;;;;1.47;1.20;;;;;;;;;;5092452;28;20854;-70
2020/12/22 04:54:52;;;;;;;2.10;1.30;;;;;;;;;;5093113;28;20523;-70
2020/12/22 04:57:20;;;;;;;1.57;1.10;;;;;;;;;;5070021;28;20500;-70
2020/12/22 04:59:46;;;;;;;2.80;1.40;;;;;;;;;;5073124;28;20453;-70
2020/12/22 05:02:15;;;;;;;1.30;0.90;;;;;;;;;;5077391;28;20427;-70
2020/12/22 05:04:41;;;;;;;1.43;1.07;;;;;;;;;;5093023;28;20420;-70
2020/12/22 05:07:10;;;;;;;2.80;1.00;;;;;;;;;;5091037;28;20420;-70
2020/12/22 05:09:36;;;;;;;1.30;0.90;;;;;;;;;;5091603;28;20462;-70
2020/12/22 05:12:02;;;;;;;1.33;0.93;;;;;;;;;;5093720;28;20861;-70
2020/12/22 05:14:28;;;;;;;2.73;1.00;;;;;;;;;;5113452;28;20416;-70
2020/12/22 05:16:55;;;;;;;1.50;1.00;;;;;;;;;;5111368;28;20490;-70
2020/12/22 05:19:21;;;;;;;1.30;0.90;;;;;;;;;;5091785;28;20513;-70
2020/12/22 05:21:48;;;;;;;1.27;0.80;;;;;;;;;;5092775;28;20912;-70
2020/12/22 05:24:14;;;;;;;2.50;1.13;;;;;;;;;;5112538;28;20522;-70
2020/12/22 05:26:42;;;;;;;1.53;1.07;;;;;;;;;;5113160;28;20844;-70
2020/12/22 05:29:18;;;;;;;1.30;0.90;;;;;;;;;;5094663;28;20920;-70
2020/12/22 05:31:49;;;;;;;1.40;0.97;;;;;;;;;;5092972;28;20380;-70
2020/12/22 05:34:15;;;;;;;1.30;0.80;;;;;;;;;;5091579;28;20526;-70
2020/12/22 05:36:42;;;;;;;1.40;0.80;;;;;;;;;;5095432;28;20404;-70
2020/12/22 05:39:09;;;;;;;1.30;0.90;;;;;;;;;;5095227;28;20817;-70
2020/12/22 05:41:36;;;;;;;1.50;1.00;;;;;;;;;;5096631;28;20883;-70
2020/12/22 05:44:02;;;;;;;1.40;0.93;;;;;;;;;;5107821;28;20489;-70
2020/12/22 05:46:30;;;;;;;1.83;1.00;;;;;;;;;;5116910;28;20793;-70
2020/12/22 05:49:02;;;;;;;1.33;1.03;;;;;;;;;;5114660;28;20426;-72
2020/12/22 05:51:28;;;;;;;1.40;0.83;;;;;;;;;;5116768;28;20400;-71
2020/12/22 05:53:54;;;;;;;1.30;0.80;;;;;;;;;;5109903;28;20784;-70
2020/12/22 05:56:23;;;;;;;1.33;1.07;;;;;;;;;;5116697;28;20462;-71
2020/12/22 05:58:50;;;;;;;1.40;0.80;;;;;;;;;;5114309;28;20550;-70
2020/12/22 06:01:27;;;;;;;1.40;1.00;;;;;;;;;;5116482;28;20396;-70
2020/12/22 06:03:53;;;;;;;1.50;0.90;;;;;;;;;;5104254;28;20443;-70
2020/12/22 06:06:19;;;;;;;1.70;1.07;;;;;;;;;;5096074;28;20471;-71
2020/12/22 06:08:49;;;;;;;1.50;1.13;;;;;;;;;;5094041;28;20808;-70
2020/12/22 06:11:15;;;;;;;2.03;0.90;;;;;;;;;;5091573;28;20426;-70
2020/12/22 06:13:41;;;;;;;2.07;1.37;;;;;;;;;;5092725;28;20448;-70
2020/12/22 06:16:20;;;;;;;1.53;0.90;;;;;;;;;;5095273;28;20412;-71
2020/12/22 06:18:47;;;;;;;1.50;0.90;;;;;;;;;;5093955;28;20448;-71
2020/12/22 06:21:17;;;;;;;1.40;1.00;;;;;;;;;;5095272;28;20408;-71
2020/12/22 06:23:44;;;;;;;1.53;1.00;;;;;;;;;;5102240;28;20522;-71
2020/12/22 06:26:11;;;;;;;1.30;0.80;;;;;;;;;;5109479;28;20479;-71
2020/12/22 06:28:37;;;;;;;1.20;0.70;;;;;;;;;;5101210;28;20783;-71
2020/12/22 06:31:16;;;;;;;1.20;0.80;;;;;;;;;;5106979;28;20842;-71
2020/12/22 06:33:42;;;;;;;1.33;0.80;;;;;;;;;;5096786;28;20435;-68
2020/12/22 06:36:17;;;;;;;1.80;1.00;;;;;;;;;;5096242;28;20434;-66
2020/12/22 06:38:47;;;;;;;1.27;0.80;;;;;;;;;;5102097;28;20462;-68
2020/12/22 06:41:32;;;;;;;1.50;0.90;;;;;;;;;;5099396;28;20436;-70
2020/12/22 06:43:58;;;;;;;1.33;0.90;;;;;;;;;;5103198;28;20442;-71
2020/12/22 06:46:33;;;;;;;1.30;0.90;;;;;;;;;;5097207;28;20404;-68
2020/12/22 06:48:59;;;;;;;1.73;0.87;;;;;;;;;;5113464;28;20478;-68
2020/12/22 06:51:36;;;;;;;1.60;0.90;;;;;;;;;;5115490;28;20468;-69
2020/12/22 06:54:14;;;;;;;2.03;0.90;;;;;;;;;;5092539;28;20489;-71
2020/12/22 06:56:47;;;;;;;1.30;0.70;;;;;;;;;;5101226;28;20419;-70
2020/12/22 06:59:14;;;;;;;1.30;0.70;;;;;;;;;;5095827;28;20456;-70
2020/12/22 07:01:46;;;;;;;2.27;1.00;;;;;;;;;;5094430;28;20916;-69
2020/12/22 07:04:19;;;;;;;1.70;1.00;;;;;;;;;;5104570;28;20800;-70
2020/12/22 07:06:51;;;;;;;1.30;0.90;;;;;;;;;;5106446;28;20493;-70
2020/12/22 07:09:18;;;;;;;1.77;1.10;;;;;;;;;;5093510;28;20412;-69
2020/12/22 07:11:44;;;;;;;1.43;0.90;;;;;;;;;;5090717;28;20432;-70
2020/12/22 07:14:13;;;;;;;1.90;1.00;;;;;;;;;;5095434;28;20448;-71
2020/12/22 07:17:02;;;;;;;1.80;0.90;;;;;;;;;;5093936;28;20424;-69
2020/12/22 07:19:29;;;;;;;1.70;0.90;;;;;;;;;;5084683;28;20801;-69
2020/12/22 07:21:56;;;;;;;1.67;0.90;;;;;;;;;;5094378;28;20400;-71
2020/12/22 07:24:22;;;;;;;1.50;0.73;;;;;;;;;;5104140;28;20534;-70
2020/12/22 07:26:48;;;;;;;1.50;0.97;;;;;;;;;;5094110;28;20433;-71
2020/12/22 07:29:14;;;;;;;1.70;0.90;;;;;;;;;;5085393;28;20484;-73
2020/12/22 07:31:42;;;;;;;1.30;0.80;;;;;;;;;;5093230;28;20427;-70
2020/12/22 07:34:08;;;;;;;1.77;1.00;;;;;;;;;;5101406;28;20553;-70
2020/12/22 07:36:34;;;;;;;1.40;0.70;;;;;;;;;;5113104;28;20411;-70
2020/12/22 07:39:13;;;;;;;1.57;1.00;;;;;;;;;;5086076;28;20460;-68
2020/12/22 07:41:40;;;;;;;1.43;1.00;;;;;;;;;;5073619;28;20897;-68
2020/12/22 07:44:16;;;;;;;1.30;0.80;;;;;;;;;;5098640;28;20492;-68
2020/12/22 07:46:43;;;;;;;1.30;0.80;;;;;;;;;;5093385;28;20911;-69
2020/12/22 07:49:10;;;;;;;1.40;0.90;;;;;;;;;;5093745;28;20502;-70
2020/12/22 07:51:36;;;;;;;1.60;0.80;;;;;;;;;;5093651;28;20500;-70
2020/12/22 07:54:06;;;;;;;1.80;1.00;;;;;;;;;;5098879;28;20452;-70
2020/12/22 07:56:34;;;;;;;1.27;0.77;;;;;;;;;;5096875;28;20796;-70
2020/12/22 07:59:03;;;;;;;1.80;0.80;;;;;;;;;;5089856;28;20451;-70
2020/12/22 08:01:30;;;;;;;1.60;0.83;;;;;;;;;;5091520;28;20416;-70
2020/12/22 08:03:56;;;;;;;1.40;0.90;;;;;;;;;;5097139;28;20435;-69
2020/12/22 08:06:22;;;;;;;1.50;1.00;;;;;;;;;;5096678;28;20416;-71
2020/12/22 08:08:58;;;;;;;1.67;0.90;;;;;;;;;;5096592;28;20981;-68
2020/12/22 08:11:25;;;;;;;2.17;0.80;;;;;;;;;;5092882;28;20450;-68
2020/12/22 08:13:51;;;;;;;1.30;0.80;;;;;;;;;;5089263;28;20475;-68
2020/12/22 08:16:18;;;;;;;1.33;0.73;;;;;;;;;;5088437;28;20436;-68
2020/12/22 08:18:45;;;;;;;1.40;0.80;;;;;;;;;;5095296;28;20456;-68
2020/12/22 08:21:11;;;;;;;1.60;0.90;;;;;;;;;;5095559;28;20412;-70
2020/12/22 08:23:38;;;;;;;1.80;0.90;;;;;;;;;;5092028;28;20416;-69
2020/12/22 08:26:05;;;;;;;1.30;0.80;;;;;;;;;;5111801;28;20395;-67
2020/12/22 08:28:31;;;;;;;1.40;0.97;;;;;;;;;;5107584;22;20476;-74
2020/12/22 08:31:07;;;;;;;1.87;0.90;;;;;;;;;;5092427;28;20409;-73
2020/12/22 08:33:34;;;;;;;2.63;0.90;;;;;;;;;;5090474;28;20376;-74
2020/12/22 08:36:00;;;;;;;1.40;0.70;;;;;;;;;;5088867;28;20415;-73
2020/12/22 08:38:27;;;;;;;1.30;0.80;;;;;;;;;;5091188;28;20408;-74
2020/12/22 08:40:54;;;;;;;1.30;0.70;;;;;;;;;;5086911;28;20408;-74
2020/12/22 08:43:22;;;;;;;1.30;0.77;;;;;;;;;;5074150;28;20400;-74
2020/12/22 08:45:48;;;;;;;1.30;0.80;;;;;;;;;;5052965;28;20414;-73
2020/12/22 08:48:14;;;;;;;2.23;1.13;;;;;;;;;;5052716;28;20430;-73
2020/12/22 08:51:06;;;;;;;2.33;0.90;;;;;;;;;;5069415;28;20760;-73
2020/12/22 08:53:32;;;;;;;3.43;1.00;;;;;;;;;;5063561;28;20674;-73
2020/12/22 08:56:08;;;;;;;1.40;0.87;;;;;;;;;;5052624;28;20501;-73
2020/12/22 08:58:34;;;;;;;1.73;1.13;;;;;;;;;;5052126;28;20425;-74
2020/12/22 09:01:17;;;;;;;1.60;0.90;;;;;;;;;;5052915;28;20410;-74
2020/12/22 09:03:47;;;;;;;1.30;0.80;;;;;;;;;;5052540;28;20383;-73
2020/12/22 09:06:13;;;;;;;1.63;0.83;;;;;;;;;;5072676;28;20390;-73
2020/12/22 09:08:39;;;;;;;1.63;1.00;;;;;;;;;;5071007;28;20425;-73
2020/12/22 09:11:05;;;;;;;1.40;0.90;;;;;;;;;;5055407;28;20448;-73
2020/12/22 09:13:32;;;;;;;1.30;0.73;;;;;;;;;;5063778;28;20514;-73
2020/12/22 09:15:58;;;;;;;1.57;1.00;;;;;;;;;;5058000;28;20464;-73
2020/12/22 09:18:24;;;;;;;2.33;0.90;;;;;;;;;;5055930;28;20833;-73
2020/12/22 09:21:07;;;;;;;3.50;1.00;;;;;;;;;;5055439;28;20909;-73
2020/12/22 09:23:42;;;;;;;3.10;1.30;;;;;;;;;;5075518;28;20382;-73
2020/12/22 09:26:08;;;;;;;1.20;0.70;;;;;;;;;;5055933;28;20456;-73
2020/12/22 09:28:34;;;;;;;1.23;0.70;;;;;;;;;;5055651;28;20888;-72
2020/12/22 09:31:00;;;;;;;1.40;0.70;;;;;;;;;;5056457;28;20524;-72
2020/12/22 09:33:26;;;;;;;1.63;1.07;;;;;;;;;;5055845;28;20401;-74
2020/12/22 09:35:52;;;;;;;1.63;0.80;;;;;;;;;;5059196;28;20421;-72
2020/12/22 09:38:18;;;;;;;3.30;0.97;;;;;;;;;;5055538;28;20417;-73
2020/12/22 09:40:44;;;;;;;1.40;0.80;;;;;;;;;;5071046;28;20490;-73
2020/12/22 09:43:10;;;;;;;5.47;0.77;;;;;;;;;;5074697;28;20772;-73
2020/12/22 09:45:36;;;;;;;1.50;0.80;;;;;;;;;;5060325;28;20429;-72
2020/12/22 09:48:02;;;;;;;1.40;0.70;;;;;;;;;;5055390;28;20410;-72
2020/12/22 09:50:28;;;;;;;1.30;0.70;;;;;;;;;;5049822;28;20470;-72
2020/12/22 09:52:54;;;;;;;1.30;0.80;;;;;;;;;;5074762;28;21091;-73
2020/12/22 09:55:20;;;;;;;1.40;0.97;;;;;;;;;;5062177;28;20422;-73
2020/12/22 09:57:46;;;;;;;1.40;0.80;;;;;;;;;;5054767;28;20418;-73
2020/12/22 10:00:12;;;;;;;1.30;0.77;;;;;;;;;;5054465;28;20446;-72
2020/12/22 10:02:38;;;;;;;1.40;0.80;;;;;;;;;;5055062;28;20398;-72
2020/12/22 10:05:04;;;;;;;2.40;0.73;;;;;;;;;;5054237;28;20918;-73
2020/12/22 10:07:30;;;;;;;1.30;0.73;;;;;;;;;;5054012;28;20508;-72
2020/12/22 10:09:56;;;;;;;1.40;0.70;;;;;;;;;;5062573;28;20485;-73
2020/12/22 10:12:22;;;;;;;1.77;0.90;;;;;;;;;;5075333;28;20403;-72
2020/12/22 10:14:48;;;;;;;1.30;0.80;;;;;;;;;;5050108;28;20426;-72
2020/12/22 10:17:14;;;;;;;1.90;0.87;;;;;;;;;;5062485;28;20882;-72
2020/12/22 10:19:40;;;;;;;1.43;0.77;;;;;;;;;;5070775;28;20454;-73
2020/12/22 10:22:06;;;;;;;1.57;0.97;;;;;;;;;;5054379;28;20444;-72
2020/12/22 10:24:32;;;;;;;4.80;0.80;;;;;;;;;;5054027;28;20444;-72
2020/12/22 10:26:58;;;;;;;1.40;0.80;;;;;;;;;;5058546;28;20417;-73
2020/12/22 10:29:24;;;;;;;1.30;0.70;;;;;;;;;;5074644;28;20425;-72
2020/12/22 10:31:50;;;;;;;2.07;0.60;;;;;;;;;;5056097;28;20422;-73
2020/12/22 10:34:16;;;;;;;1.40;0.80;;;;;;;;;;5054334;28;20460;-73
2020/12/22 10:36:46;;;;;;;2.87;0.83;;;;;;;;;;5070650;28;20930;-73
2020/12/22 10:39:12;;;;;;;2.07;1.00;;;;;;;;;;5073622;28;20843;-73
2020/12/22 10:41:38;;;;;;;1.40;0.80;;;;;;;;;;5054761;28;20504;-73
2020/12/22 10:44:04;;;;;;;1.30;0.80;;;;;;;;;;5054591;28;20433;-73
2020/12/22 10:46:30;;;;;;;1.50;0.70;;;;;;;;;;5054832;28;20414;-73
2020/12/22 10:48:56;;;;;;;1.60;0.90;;;;;;;;;;5055340;28;20808;-72
2020/12/22 10:51:22;;;;;;;1.80;0.93;;;;;;;;;;5055008;28;20433;-72
2020/12/22 10:53:48;;;;;;;1.60;0.80;;;;;;;;;;5059620;28;20408;-73
2020/12/22 10:56:16;;;;;;;1.40;0.80;;;;;;;;;;5062871;28;20426;-73
2020/12/22 10:58:42;;;;;;;1.20;0.67;;;;;;;;;;5057343;28;20457;-73
2020/12/22 11:01:09;;;;;;;1.80;0.70;;;;;;;;;;5058742;28;20537;-73
2020/12/22 11:03:35;;;;;;;1.50;0.90;;;;;;;;;;5058724;28;20417;-73
2020/12/22 11:06:09;;;;;;;1.93;0.90;;;;;;;;;;5066395;28;20940;-73
2020/12/22 11:08:36;;;;;;;7.83;0.90;;;;;;;;;;5074563;28;20459;-74
2020/12/22 11:11:02;;;;;;;3.40;0.87;;;;;;;;;;5063998;28;20457;-73
2020/12/22 11:13:28;;;;;;;1.90;0.90;;;;;;;;;;5054084;28;20399;-73
2020/12/22 11:15:54;;;;;;;2.03;0.73;;;;;;;;;;5053823;28;20449;-72
2020/12/22 11:18:20;;;;;;;1.30;0.73;;;;;;;;;;5064900;28;20453;-74
2020/12/22 11:20:47;;;;;;;1.70;0.70;;;;;;;;;;5053690;28;20464;-73
2020/12/22 11:23:13;;;;;;;1.30;0.70;;;;;;;;;;5055118;28;20767;-72
2020/12/22 11:25:39;;;;;;;1.40;0.80;;;;;;;;;;5066318;28;20792;-73
2020/12/22 11:28:05;;;;;;;1.77;0.93;;;;;;;;;;5047485;28;20464;-73
2020/12/22 11:30:31;;;;;;;1.30;0.70;;;;;;;;;;5074001;28;20437;-72
2020/12/22 11:32:57;;;;;;;1.70;0.97;;;;;;;;;;5072539;28;20423;-72
2020/12/22 11:35:23;;;;;;;1.37;0.73;;;;;;;;;;5068771;28;20433;-72
2020/12/22 11:37:49;;;;;;;1.40;0.80;;;;;;;;;;5054235;28;20479;-73
2020/12/22 11:40:15;;;;;;;1.23;0.70;;;;;;;;;;5052587;28;20454;-72
2020/12/22 11:42:41;;;;;;;1.30;0.70;;;;;;;;;;5052742;28;20819;-72
2020/12/22 11:45:07;;;;;;;1.60;0.80;;;;;;;;;;5052933;28;20403;-73
2020/12/22 11:47:33;;;;;;;1.60;1.00;;;;;;;;;;5054999;28;20429;-73
2020/12/22 11:49:59;;;;;;;1.50;0.90;;;;;;;;;;5072519;28;20432;-74
2020/12/22 11:52:25;;;;;;;1.30;0.70;;;;;;;;;;5053064;28;20898;-73
2020/12/22 11:54:52;;;;;;;1.60;0.93;;;;;;;;;;5052405;28;20920;-73
2020/12/22 11:57:18;;;;;;;1.40;0.80;;;;;;;;;;5070678;28;20476;-73
2020/12/22 11:59:44;;;;;;;3.20;0.90;;;;;;;;;;5073263;28;20970;-72
2020/12/22 12:02:10;;;;;;;2.43;1.00;;;;;;;;;;5057466;28;20854;-72
2020/12/22 12:04:36;;;;;;;1.70;1.10;;;;;;;;;;5052469;28;20441;-73
2020/12/22 12:07:02;;;;;;;1.50;0.90;;;;;;;;;;5067672;28;20428;-73
2020/12/22 12:09:28;;;;;;;2.80;1.40;;;;;;;;;;5072790;28;20402;-71
2020/12/22 12:11:54;;;;;;;1.80;1.00;;;;;;;;;;5053789;28;20441;-71
2020/12/22 12:14:20;;;;;;;2.07;1.00;;;;;;;;;;5072696;28;20480;-72
2020/12/22 12:16:47;;;;;;;1.30;0.70;;;;;;;;;;5070103;28;20452;-72
2020/12/22 12:19:13;;;;;;;1.57;0.70;;;;;;;;;;5057944;28;20465;-72
2020/12/22 12:21:40;;;;;;;1.90;0.80;;;;;;;;;;5056526;28;20437;-72
2020/12/22 12:24:06;;;;;;;1.37;0.83;;;;;;;;;;5052046;28;20882;-72
2020/12/22 12:26:32;;;;;;;1.30;0.70;;;;;;;;;;5052288;28;20425;-72
2020/12/22 12:28:58;;;;;;;2.17;1.20;;;;;;;;;;5053636;28;20441;-72
2020/12/22 12:31:26;;;;;;;1.70;0.90;;;;;;;;;;5062706;28;20571;-72
2020/12/22 12:33:52;;;;;;;2.70;0.97;;;;;;;;;;5052677;28;20882;-72
2020/12/22 12:36:18;;;;;;;1.30;0.80;;;;;;;;;;5060500;28;20578;-70
2020/12/22 12:38:44;;;;;;;1.50;0.90;;;;;;;;;;5064549;28;20452;-72
2020/12/22 12:41:14;;;;;;;1.67;0.70;;;;;;;;;;5060098;28;20422;-72
2020/12/22 12:43:41;;;;;;;1.70;0.83;;;;;;;;;;5057395;28;20539;-72
2020/12/22 12:46:07;;;;;;;2.10;1.07;;;;;;;;;;5067542;28;20418;-73
2020/12/22 12:48:34;;;;;;;1.77;1.00;;;;;;;;;;5056380;28;20418;-71
2020/12/22 12:51:00;;;;;;;1.27;0.70;;;;;;;;;;5057103;28;20430;-73
2020/12/22 12:53:26;;;;;;;1.40;0.70;;;;;;;;;;5060058;28;20424;-75
2020/12/22 12:55:52;;;;;;;1.73;0.80;;;;;;;;;;5074986;28;20421;-75
2020/12/22 12:58:18;;;;;;;2.60;0.70;;;;;;;;;;5073398;28;20519;-75
2020/12/22 13:00:45;;;;;;;1.30;0.60;;;;;;;;;;5061234;28;20480;-75
2020/12/22 13:03:11;;;;;;;1.50;0.70;;;;;;;;;;5060369;28;20414;-73
2020/12/22 13:05:37;;;;;;;1.40;0.60;;;;;;;;;;5061605;28;20743;-71
2020/12/22 13:08:03;;;;;;;2.30;0.80;;;;;;;;;;5065303;28;20445;-69
2020/12/22 13:10:29;;;;;;;1.80;1.00;;;;;;;;;;5066915;28;20425;-76
2020/12/22 13:12:55;;;;;;;1.50;0.90;;;;;;;;;;5063535;28;21413;-74
2020/12/22 13:15:21;;;;;;;1.30;0.70;;;;;;;;;;5071488;28;20508;-75
2020/12/22 13:17:47;;;;;;;1.50;0.70;;;;;;;;;;5073359;28;21031;-74
2020/12/22 13:20:13;;;;;;;1.30;0.70;;;;;;;;;;5052202;28;20450;-75
2020/12/22 13:22:40;;;;;;;1.50;0.77;;;;;;;;;;5063823;28;20486;-75
2020/12/22 13:25:06;;;;;;;1.50;0.80;;;;;;;;;;5045955;28;20420;-76
2020/12/22 13:27:32;;;;;;;2.17;1.00;;;;;;;;;;5072530;28;21021;-77
2020/12/22 13:29:58;;;;;;;1.77;0.80;;;;;;;;;;5075055;28;20432;-71
2020/12/22 13:32:25;;;;;;;1.30;0.80;;;;;;;;;;5069658;28;21003;-76
2020/12/22 13:34:51;;;;;;;1.30;0.70;;;;;;;;;;5065812;28;20405;-74
2020/12/22 13:37:17;;;;;;;2.07;1.00;;;;;;;;;;5049751;28;20975;-70
2020/12/22 13:39:43;;;;;;;1.60;0.90;;;;;;;;;;5070702;28;20430;-74
2020/12/22 13:42:09;;;;;;;1.87;0.90;;;;;;;;;;5055236;28;20177;-72
2020/12/22 13:44:35;;;;;;;1.43;0.83;;;;;;;;;;5037460;28;20414;-74
2020/12/22 13:47:05;;;;;;;1.30;0.80;;;;;;;;;;5042593;28;20428;-77
2020/12/22 13:49:31;;;;;;;1.40;0.80;;;;;;;;;;5057418;28;21020;-75
2020/12/22 13:51:57;;;;;;;1.40;0.60;;;;;;;;;;5072312;28;20794;-75
2020/12/22 13:54:23;;;;;;;2.13;0.80;;;;;;;;;;5076535;28;20460;-72
2020/12/22 13:56:49;;;;;;;1.50;0.80;;;;;;;;;;5077041;28;20440;-75
2020/12/22 13:59:15;;;;;;;1.90;0.80;;;;;;;;;;5071399;28;20449;-77
2020/12/22 14:01:41;;;;;;;1.20;0.70;;;;;;;;;;5037230;28;20730;-76
2020/12/22 14:04:07;;;;;;;1.30;0.70;;;;;;;;;;5068598;28;20410;-74
2020/12/22 14:06:33;;;;;;;1.50;0.80;;;;;;;;;;5060555;28;20425;-71
2020/12/22 14:08:59;;;;;;;1.30;0.70;;;;;;;;;;5062843;28;20424;-71
2020/12/22 14:11:28;;;;;;;1.50;0.80;;;;;;;;;;5072522;28;20436;-71
2020/12/22 14:13:54;;;;;;;1.60;0.93;;;;;;;;;;5059608;28;20464;-71
2020/12/22 14:16:21;;;;;;;5.17;0.90;;;;;;;;;;5066597;28;20499;-70
2020/12/22 14:18:47;;;;;;;1.67;0.80;;;;;;;;;;5074064;28;20425;-69
2020/12/22 14:21:14;;;;;;;2.93;0.73;;;;;;;;;;5067639;28;20429;-72
2020/12/22 14:23:40;;;;;;;1.50;0.87;;;;;;;;;;5054803;28;20834;-69
2020/12/22 14:26:06;;;;;;;1.60;0.90;;;;;;;;;;5062942;28;20413;-72
2020/12/22 14:28:32;;;;;;;3.23;1.00;;;;;;;;;;5057215;28;20582;-75
2020/12/22 14:30:59;;;;;;;1.50;0.80;;;;;;;;;;5061502;28;20500;-74
2020/12/22 14:33:25;;;;;;;1.53;1.00;;;;;;;;;;5059048;28;20884;-71
2020/12/22 14:35:51;;;;;;;1.60;0.90;;;;;;;;;;5054250;28;20829;-76
2020/12/22 14:38:18;;;;;;;1.58;0.90;;;;;;;;;;5067716;28;20438;-73
2020/12/22 14:40:44;;;;;;;3.10;1.10;;;;;;;;;;5073473;28;20198;-73
2020/12/22 14:43:10;;;;;;;1.63;0.93;;;;;;;;;;5062255;28;20456;-76